Orbital elements of YURI-2A
| Launched | 22 January 1984 |
| Flight ended | – |
| Launch site | Tanegashima Space Center, Japan |
| Owner | Japan |
| NORAD ID | 14659 |
| Alternative names |
BS-2A |
| Date fetched |
Epoch osculation |
Inc. [°] |
Ecc. | RA asc node [hr] |
Arg Peri. [°] |
Mean anom [°] |
Mean motion [rev/day] |
Abs. mag |
| Date fetched |
Epoch osculation |
Inc. [°] |
Ecc. | RA asc node [hr] |
Arg Peri. [°] |
Mean anom [°] |
Mean motion [rev/day] |
Abs. mag |
| 2026 May 08 17:57 | 2026 May 05 03:10:28 | 11.1211 | 0.00126 | 21.6625 | 220.1396 | 140.0793 | 0.99049 | – |
| 2026 May 07 17:58 | 2026 May 05 03:10:28 | 11.1211 | 0.00126 | 21.6625 | 220.1396 | 140.0793 | 0.99049 | – |
| 2026 May 06 17:57 | 2026 May 05 03:10:28 | 11.1211 | 0.00126 | 21.6625 | 220.1396 | 140.0793 | 0.99049 | – |
| 2026 May 05 17:57 | 2026 May 05 03:10:28 | 11.1211 | 0.00126 | 21.6625 | 220.1396 | 140.0793 | 0.99049 | – |
| 2026 May 04 17:57 | 2026 Apr 30 13:45:04 | 11.1280 | 0.00125 | 21.6644 | 220.7880 | 140.0793 | 0.99049 | – |
| 2026 May 03 17:57 | 2026 Apr 30 13:45:04 | 11.1280 | 0.00125 | 21.6644 | 220.7880 | 140.0793 | 0.99049 | – |
| 2026 May 02 17:57 | 2026 Apr 30 13:45:04 | 11.1280 | 0.00125 | 21.6644 | 220.7880 | 140.0793 | 0.99049 | – |
| 2026 May 01 17:56 | 2026 Apr 30 13:45:04 | 11.1280 | 0.00125 | 21.6644 | 220.7880 | 140.0793 | 0.99049 | – |
| 2026 Apr 30 17:56 | 2026 Apr 30 13:45:04 | 11.1280 | 0.00125 | 21.6644 | 220.7880 | 140.0793 | 0.99049 | – |
| 2026 Apr 29 17:57 | 2026 Apr 24 13:08:38 | 11.1368 | 0.00123 | 21.6668 | 221.4741 | 140.0793 | 0.99049 | – |
| 2026 Apr 28 17:56 | 2026 Apr 24 13:08:38 | 11.1368 | 0.00123 | 21.6668 | 221.4741 | 140.0793 | 0.99049 | – |
| 2026 Apr 27 17:58 | 2026 Apr 24 13:08:38 | 11.1368 | 0.00123 | 21.6668 | 221.4741 | 140.0793 | 0.99049 | – |
| 2026 Apr 26 17:58 | 2026 Apr 24 13:08:38 | 11.1368 | 0.00123 | 21.6668 | 221.4741 | 140.0793 | 0.99049 | – |
| 2026 Apr 25 17:58 | 2026 Apr 24 13:08:38 | 11.1368 | 0.00123 | 21.6668 | 221.4741 | 140.0793 | 0.99049 | – |
| 2026 Apr 24 17:59 | 2026 Apr 24 13:08:38 | 11.1368 | 0.00123 | 21.6668 | 221.4741 | 140.0793 | 0.99049 | – |
| 2026 Apr 23 17:57 | 2026 Apr 19 11:01:51 | 11.1442 | 0.00121 | 21.6690 | 222.5934 | 140.0793 | 0.99049 | – |
| 2026 Apr 22 17:57 | 2026 Apr 19 11:01:51 | 11.1442 | 0.00121 | 21.6690 | 222.5934 | 140.0793 | 0.99049 | – |
| 2026 Apr 21 17:57 | 2026 Apr 19 11:01:51 | 11.1442 | 0.00121 | 21.6690 | 222.5934 | 140.0793 | 0.99049 | – |
| 2026 Apr 20 17:57 | 2026 Apr 19 11:01:51 | 11.1442 | 0.00121 | 21.6690 | 222.5934 | 140.0793 | 0.99049 | – |
| 2026 Apr 19 17:58 | 2026 Apr 19 11:01:51 | 11.1442 | 0.00121 | 21.6690 | 222.5934 | 140.0793 | 0.99049 | – |
| 2026 Apr 18 17:56 | 2026 Apr 12 21:44:07 | 11.1537 | 0.00121 | 21.6717 | 224.5652 | 140.0793 | 0.99049 | – |
| 2026 Apr 16 17:57 | 2026 Apr 12 21:44:07 | 11.1537 | 0.00121 | 21.6717 | 224.5652 | 140.0793 | 0.99049 | – |
| 2026 Apr 14 17:57 | 2026 Apr 12 21:44:07 | 11.1537 | 0.00121 | 21.6717 | 224.5652 | 140.0793 | 0.99049 | – |
| 2026 Apr 13 17:57 | 2026 Apr 12 21:44:07 | 11.1537 | 0.00121 | 21.6717 | 224.5652 | 140.0793 | 0.99049 | – |
| 2026 Apr 12 17:57 | 2026 Apr 08 10:04:38 | 11.1603 | 0.00121 | 21.6735 | 225.7044 | 140.0793 | 0.99049 | – |
| 2026 Apr 11 17:57 | 2026 Apr 08 10:04:38 | 11.1603 | 0.00121 | 21.6735 | 225.7044 | 140.0793 | 0.99049 | – |